Time;durP1;ratioP1;P1;durP2;ratioP2;P2;SDS_P1;SDS_P2;PMS_P1;PMS_P2;Temp;Humidity;BMP_temperature;BMP_pressure;BME280_temperature;BME280_humidity;BME280_pressure;Samples;Min_cycle;Max_cycle;Signal;HPM_P1;HPM_P2
2021/05/15 00:01:28;;;;;;;22.95;15.23;;;6.90;92.70;;;;;;4984495;28;20048;-79
2021/05/15 00:03:54;;;;;;;23.40;14.63;;;6.90;92.80;;;;;;5003807;28;20037;-79
2021/05/15 00:06:19;;;;;;;21.92;15.35;;;6.90;92.80;;;;;;5022467;28;20033;-80
2021/05/15 00:08:45;;;;;;;28.80;14.35;;;6.90;92.80;;;;;;4980221;28;20060;-79
2021/05/15 00:11:11;;;;;;;13.63;8.95;;;6.90;92.70;;;;;;5015754;28;20223;-79
2021/05/15 00:13:37;;;;;;;11.52;8.02;;;6.90;92.60;;;;;;4968607;28;20046;-79
2021/05/15 00:16:03;;;;;;;15.20;9.05;;;6.80;92.50;;;;;;4999137;28;20045;-79
2021/05/15 00:18:28;;;;;;;15.60;9.43;;;6.70;92.40;;;;;;4997773;28;20038;-79
2021/05/15 00:20:54;;;;;;;13.80;8.80;;;6.60;92.40;;;;;;4980524;28;20125;-79
2021/05/15 00:23:20;;;;;;;16.90;11.52;;;6.60;92.60;;;;;;4999355;28;20034;-79
2021/05/15 00:25:46;;;;;;;19.48;12.77;;;6.60;92.60;;;;;;4971203;28;20067;-79
2021/05/15 00:28:12;;;;;;;21.55;12.30;;;6.50;92.60;;;;;;4979379;28;20048;-79
2021/05/15 00:30:38;;;;;;;18.55;11.80;;;6.50;92.70;;;;;;5018503;28;20057;-79
2021/05/15 00:33:04;;;;;;;19.65;12.23;;;6.40;92.80;;;;;;4987699;28;20045;-79
2021/05/15 00:35:30;;;;;;;20.05;13.05;;;6.40;92.90;;;;;;4981561;28;20124;-79
2021/05/15 00:37:56;;;;;;;22.98;14.20;;;6.40;92.90;;;;;;4967834;28;20045;-79
2021/05/15 00:40:22;;;;;;;23.30;13.23;;;6.30;92.90;;;;;;5008453;28;20052;-79
2021/05/15 00:42:50;;;;;;;27.90;15.68;;;6.40;93.00;;;;;;5003599;28;20041;-79
2021/05/15 00:45:16;;;;;;;27.35;14.65;;;6.40;93.00;;;;;;5020725;28;20391;-79
2021/05/15 00:47:43;;;;;;;22.15;15.23;;;6.30;93.10;;;;;;5024790;28;20057;-79
2021/05/15 00:50:10;;;;;;;23.88;14.82;;;6.30;93.10;;;;;;4987202;28;20033;-79
2021/05/15 00:52:36;;;;;;;21.77;14.13;;;6.30;93.20;;;;;;5010248;28;20349;-79
2021/05/15 00:55:08;;;;;;;25.45;15.15;;;6.30;93.20;;;;;;5028090;28;20069;-80
2021/05/15 00:57:35;;;;;;;25.07;14.40;;;6.30;93.20;;;;;;5007671;28;20829;-80
2021/05/15 01:00:01;;;;;;;19.13;12.95;;;6.30;93.20;;;;;;5006293;28;20113;-80
2021/05/15 01:02:27;;;;;;;16.60;11.13;;;6.20;93.20;;;;;;4978399;28;20038;-79
2021/05/15 01:04:53;;;;;;;16.80;11.98;;;6.20;93.40;;;;;;4983862;28;20040;-79
2021/05/15 01:07:19;;;;;;;16.88;11.88;;;6.20;93.00;;;;;;5001956;28;20072;-79
2021/05/15 01:09:44;;;;;;;21.73;12.90;;;6.20;93.00;;;;;;4983452;28;20056;-79
2021/05/15 01:12:10;;;;;;;22.73;13.40;;;6.10;93.00;;;;;;4987185;28;20048;-80
2021/05/15 01:14:38;;;;;;;20.42;12.90;;;6.10;92.90;;;;;;4999269;28;20065;-80
2021/05/15 01:17:07;;;;;;;20.10;12.73;;;6.10;93.20;;;;;;4981107;28;21426;-80
2021/05/15 01:19:33;;;;;;;15.77;11.20;;;6.00;92.90;;;;;;5005767;28;20045;-80
2021/05/15 01:21:59;;;;;;;19.90;11.70;;;6.00;93.00;;;;;;4997896;28;20041;-79
2021/05/15 01:24:24;;;;;;;15.90;10.48;;;6.00;93.00;;;;;;4984641;28;20069;-79
2021/05/15 01:26:50;;;;;;;16.20;10.82;;;5.90;93.00;;;;;;4991194;28;20550;-79
2021/05/15 01:29:16;;;;;;;19.88;11.65;;;6.00;93.10;;;;;;4984449;28;20033;-80
2021/05/15 01:31:42;;;;;;;20.50;11.70;;;6.00;93.10;;;;;;5022893;28;20474;-80
2021/05/15 01:34:08;;;;;;;19.70;12.82;;;6.00;93.60;;;;;;5022791;28;20108;-79
2021/05/15 01:36:42;;;;;;;21.40;12.65;;;6.00;93.40;;;;;;5006572;28;20038;-79
2021/05/15 01:39:14;;;;;;;22.20;13.15;;;6.00;93.30;;;;;;4988847;28;20472;-80
2021/05/15 01:41:42;;;;;;;18.20;11.80;;;6.10;93.40;;;;;;5014680;28;20549;-79
2021/05/15 01:44:08;;;;;;;21.45;12.60;;;6.10;93.40;;;;;;5012403;28;20033;-79
2021/05/15 01:46:34;;;;;;;17.63;12.80;;;6.10;93.30;;;;;;4995023;28;20514;-79
2021/05/15 01:49:00;;;;;;;20.90;12.73;;;6.10;93.30;;;;;;5008988;28;20029;-79
2021/05/15 01:51:26;;;;;;;21.83;13.65;;;6.20;93.40;;;;;;4995054;28;20550;-79
2021/05/15 01:53:53;;;;;;;22.58;13.05;;;6.20;93.40;;;;;;4995743;28;20056;-80
2021/05/15 01:56:21;;;;;;;19.90;12.55;;;6.20;93.30;;;;;;4997171;28;20052;-79
2021/05/15 01:58:47;;;;;;;22.35;13.07;;;6.20;93.40;;;;;;5000946;28;20040;-80
2021/05/15 02:01:13;;;;;;;15.02;10.43;;;6.20;93.40;;;;;;5021445;28;20045;-80
2021/05/15 02:03:42;;;;;;;15.75;10.52;;;6.20;93.40;;;;;;4999030;28;20034;-80
2021/05/15 02:06:08;;;;;;;15.90;10.95;;;6.30;93.40;;;;;;5017218;28;20135;-79
2021/05/15 02:08:34;;;;;;;15.93;11.32;;;6.30;93.60;;;;;;4990466;28;20037;-80
2021/05/15 02:11:01;;;;;;;16.35;11.35;;;6.30;93.60;;;;;;4973711;28;20049;-80
2021/05/15 02:13:27;;;;;;;18.83;12.13;;;6.30;93.30;;;;;;5014762;28;20410;-80
2021/05/15 02:15:55;;;;;;;21.13;12.30;;;6.40;93.30;;;;;;5036943;28;20458;-79
2021/05/15 02:18:22;;;;;;;18.88;11.98;;;6.40;93.40;;;;;;5003449;28;20114;-80
2021/05/15 02:20:49;;;;;;;21.23;12.77;;;6.40;93.40;;;;;;5006808;28;20037;-80
2021/05/15 02:23:15;;;;;;;16.80;11.85;;;6.40;93.30;;;;;;4999488;28;20278;-80
2021/05/15 02:25:42;;;;;;;22.35;11.93;;;6.40;93.40;;;;;;5014473;28;20044;-79
2021/05/15 02:28:09;;;;;;;19.67;12.95;;;6.40;93.50;;;;;;4985383;28;20030;-79
2021/05/15 02:30:35;;;;;;;18.83;12.63;;;6.40;93.40;;;;;;4983703;28;20041;-80
2021/05/15 02:33:02;;;;;;;23.17;14.63;;;6.40;93.40;;;;;;5002295;28;20123;-80
2021/05/15 02:35:28;;;;;;;18.02;12.82;;;6.50;93.50;;;;;;5020945;28;20026;-79
2021/05/15 02:37:54;;;;;;;20.88;13.85;;;6.40;93.40;;;;;;4971477;28;20044;-79
2021/05/15 02:40:21;;;;;;;22.83;14.57;;;6.40;93.40;;;;;;5019387;28;20041;-80
2021/05/15 02:42:50;;;;;;;26.52;14.95;;;6.40;93.40;;;;;;5021177;28;20062;-80
2021/05/15 02:45:18;;;;;;;24.00;15.07;;;6.40;93.50;;;;;;5007863;28;20048;-79
2021/05/15 02:47:44;;;;;;;24.42;15.50;;;6.40;93.50;;;;;;5009181;28;20037;-80
2021/05/15 02:50:12;;;;;;;28.60;15.63;;;6.40;93.50;;;;;;4996475;28;20029;-79
2021/05/15 02:52:38;;;;;;;28.25;15.65;;;6.40;93.60;;;;;;4995218;28;20069;-79
2021/05/15 02:55:05;;;;;;;26.10;15.65;;;6.40;93.60;;;;;;4991796;28;20422;-79
2021/05/15 02:57:34;;;;;;;27.38;15.95;;;6.40;93.70;;;;;;5015122;28;20098;-79
2021/05/15 03:00:00;;;;;;;26.73;15.90;;;6.40;93.80;;;;;;5014883;28;20041;-79
2021/05/15 03:02:26;;;;;;;31.20;16.35;;;6.30;93.80;;;;;;4979322;28;20381;-79
2021/05/15 03:04:52;;;;;;;24.02;15.18;;;6.30;93.90;;;;;;5007481;28;20030;-79
2021/05/15 03:07:18;;;;;;;26.30;15.07;;;6.30;93.90;;;;;;4971791;28;20049;-79
2021/05/15 03:09:45;;;;;;;31.02;16.27;;;6.30;93.90;;;;;;4986607;28;20534;-79
2021/05/15 03:12:12;;;;;;;37.00;18.63;;;6.30;93.90;;;;;;5012847;28;20059;-79
2021/05/15 03:14:38;;;;;;;31.40;17.75;;;6.30;93.90;;;;;;5021284;28;20037;-79
2021/05/15 03:17:05;;;;;;;32.55;17.50;;;6.30;93.90;;;;;;4999510;28;20037;-79
2021/05/15 03:19:31;;;;;;;31.80;17.98;;;6.30;93.90;;;;;;5016026;28;20045;-80
2021/05/15 03:21:57;;;;;;;34.63;18.38;;;6.40;94.00;;;;;;5014565;28;20480;-80
2021/05/15 03:24:23;;;;;;;26.48;15.35;;;6.40;94.10;;;;;;4981196;28;20263;-80
2021/05/15 03:26:49;;;;;;;23.02;14.30;;;6.40;94.00;;;;;;4990132;28;20478;-80
2021/05/15 03:29:15;;;;;;;22.88;15.10;;;6.50;94.10;;;;;;5016578;28;20037;-79
2021/05/15 03:31:41;;;;;;;27.70;16.50;;;6.50;94.10;;;;;;4997578;28;20469;-80
2021/05/15 03:34:08;;;;;;;28.20;17.33;;;6.50;94.10;;;;;;5003966;28;20036;-79
2021/05/15 03:36:34;;;;;;;33.63;17.83;;;6.50;94.00;;;;;;4995217;28;20045;-79
2021/05/15 03:39:02;;;;;;;34.67;17.92;;;6.50;94.00;;;;;;4987415;28;20061;-79
2021/05/15 03:41:28;;;;;;;32.75;17.52;;;6.50;94.00;;;;;;5007726;28;20044;-79
2021/05/15 03:43:54;;;;;;;35.20;18.70;;;6.40;94.00;;;;;;4989381;28;21546;-80
2021/05/15 03:46:20;;;;;;;34.35;18.25;;;6.40;94.00;;;;;;4998321;28;20443;-79
2021/05/15 03:48:46;;;;;;;33.17;17.83;;;6.40;94.10;;;;;;5015240;28;20038;-80
2021/05/15 03:51:12;;;;;;;28.35;17.83;;;6.40;94.10;;;;;;4982640;28;22038;-80
2021/05/15 03:53:38;;;;;;;29.08;16.27;;;6.40;94.10;;;;;;4992712;28;20488;-80
2021/05/15 03:56:04;;;;;;;35.75;18.25;;;6.50;94.20;;;;;;4995633;28;20045;-80
2021/05/15 03:58:30;;;;;;;34.17;19.08;;;6.50;94.20;;;;;;5016707;28;20038;-79
2021/05/15 04:00:56;;;;;;;33.25;18.75;;;6.50;94.20;;;;;;4998876;28;20049;-79
2021/05/15 04:03:22;;;;;;;36.90;19.05;;;6.60;94.30;;;;;;4974668;28;20128;-81
2021/05/15 04:05:47;;;;;;;32.08;18.92;;;6.60;94.30;;;;;;4986559;28;21078;-81
2021/05/15 04:08:13;;;;;;;37.15;19.50;;;6.60;94.30;;;;;;4977514;28;20171;-81
2021/05/15 04:10:39;;;;;;;35.78;20.10;;;6.70;94.30;;;;;;4990099;28;20420;-81
2021/05/15 04:13:31;;;;;;;38.28;20.15;;;6.70;94.30;;;;;;5003174;28;20029;-81
2021/05/15 04:16:10;;;;;;;44.13;22.13;;;6.80;94.30;;;;;;5032335;28;20041;-80
2021/05/15 04:18:36;;;;;;;48.07;21.27;;;6.90;94.30;;;;;;4988307;28;20045;-80
2021/05/15 04:21:02;;;;;;;42.50;21.08;;;6.90;94.30;;;;;;4988342;28;20039;-81
2021/05/15 04:23:28;;;;;;;37.03;20.17;;;7.00;94.40;;;;;;5020433;28;20680;-81
2021/05/15 04:25:55;;;;;;;46.65;23.67;;;7.00;94.40;;;;;;4982922;28;20533;-81
2021/05/15 04:28:22;;;;;;;48.17;22.52;;;7.00;94.30;;;;;;4973095;28;20052;-80
2021/05/15 04:30:48;;;;;;;44.75;21.77;;;7.10;94.40;;;;;;4997873;28;20057;-81
2021/05/15 04:33:14;;;;;;;47.65;22.50;;;7.20;94.40;;;;;;4981701;28;20033;-81
2021/05/15 04:35:39;;;;;;;43.47;21.70;;;7.30;94.40;;;;;;5014200;28;20034;-81
2021/05/15 04:38:06;;;;;;;42.65;21.27;;;7.40;94.40;;;;;;4974781;28;20052;-81
2021/05/15 04:40:34;;;;;;;43.53;23.15;;;7.40;94.40;;;;;;5001395;28;619293;-81
2021/05/15 04:43:00;;;;;;;43.80;22.33;;;7.50;94.40;;;;;;5004623;28;20034;-81
2021/05/15 04:45:30;;;;;;;45.17;21.98;;;7.50;94.40;;;;;;5013300;28;20046;-81
2021/05/15 04:47:56;;;;;;;42.05;20.65;;;7.50;94.40;;;;;;5038453;28;20075;-81
2021/05/15 04:50:22;;;;;;;40.42;21.15;;;7.50;94.50;;;;;;4995266;28;20365;-81
2021/05/15 04:52:48;;;;;;;48.78;21.58;;;7.50;94.50;;;;;;5020128;28;20819;-81
2021/05/15 04:55:14;;;;;;;43.05;20.95;;;7.60;94.40;;;;;;5025211;28;20057;-81
2021/05/15 04:57:39;;;;;;;42.35;21.42;;;7.60;94.50;;;;;;4991792;28;20037;-80
2021/05/15 05:00:06;;;;;;;41.97;21.23;;;7.70;94.50;;;;;;4994627;28;20100;-81
2021/05/15 05:02:32;;;;;;;41.40;20.58;;;7.70;94.60;;;;;;5005072;28;20065;-81
2021/05/15 05:04:57;;;;;;;42.72;21.38;;;7.80;94.60;;;;;;5006732;28;20068;-81
2021/05/15 05:07:23;;;;;;;44.47;20.67;;;7.80;94.60;;;;;;5002622;28;20052;-81
2021/05/15 05:09:49;;;;;;;41.35;20.25;;;7.80;94.60;;;;;;5011921;28;20087;-81
2021/05/15 05:12:15;;;;;;;36.25;18.75;;;7.80;94.60;;;;;;5014095;28;20052;-81
2021/05/15 05:14:41;;;;;;;36.45;18.50;;;7.90;94.60;;;;;;4999742;28;20388;-80
2021/05/15 05:17:07;;;;;;;34.33;18.45;;;7.90;94.70;;;;;;4995665;28;20072;-80
2021/05/15 05:19:32;;;;;;;36.42;18.40;;;8.00;94.50;;;;;;5011643;28;20538;-80
2021/05/15 05:22:02;;;;;;;37.78;19.15;;;8.00;94.50;;;;;;4987072;28;20099;-81
2021/05/15 05:24:29;;;;;;;33.17;18.08;;;8.00;94.50;;;;;;5004993;28;20060;-80
2021/05/15 05:26:56;;;;;;;32.67;17.33;;;8.00;94.50;;;;;;4986885;28;20049;-81
2021/05/15 05:29:22;;;;;;;38.47;18.80;;;8.00;94.40;;;;;;5026486;28;20026;-80
2021/05/15 05:31:50;;;;;;;33.63;18.33;;;8.10;94.40;;;;;;4988247;28;20093;-81
2021/05/15 05:34:16;;;;;;;38.20;19.08;;;8.10;94.40;;;;;;5007404;28;20060;-80
2021/05/15 05:36:42;;;;;;;37.53;19.45;;;8.10;94.40;;;;;;5002664;28;20036;-80
2021/05/15 05:39:11;;;;;;;35.38;19.02;;;8.10;94.40;;;;;;5023505;28;20042;-81
2021/05/15 05:41:38;;;;;;;33.88;19.45;;;8.20;94.40;;;;;;5021735;28;20063;-81
2021/05/15 05:44:05;;;;;;;35.63;19.30;;;8.20;94.40;;;;;;5013158;28;20125;-80
2021/05/15 05:46:32;;;;;;;36.53;19.85;;;8.20;94.40;;;;;;5027603;28;20037;-80
2021/05/15 05:48:58;;;;;;;33.70;19.17;;;8.30;94.40;;;;;;5003707;28;20037;-80
2021/05/15 05:51:24;;;;;;;39.65;19.17;;;8.30;94.30;;;;;;5008857;28;20045;-80
2021/05/15 05:53:50;;;;;;;37.60;18.48;;;8.30;94.30;;;;;;4964485;28;20060;-81
2021/05/15 05:56:17;;;;;;;34.97;19.65;;;8.40;94.40;;;;;;5016750;28;20338;-80
2021/05/15 05:58:45;;;;;;;38.75;19.52;;;8.40;94.30;;;;;;4969914;28;20122;-81
2021/05/15 06:01:15;;;;;;;38.65;19.40;;;8.40;94.30;;;;;;5010974;28;20067;-81
2021/05/15 06:03:41;;;;;;;41.53;19.23;;;8.40;94.60;;;;;;5017981;28;20045;-81
2021/05/15 06:06:07;;;;;;;34.60;18.75;;;8.50;94.40;;;;;;4983224;28;20040;-81
2021/05/15 06:08:34;;;;;;;36.63;18.35;;;8.50;94.40;;;;;;5014611;28;20581;-81
2021/05/15 06:11:00;;;;;;;38.92;19.55;;;8.50;94.30;;;;;;5003830;28;20032;-81
2021/05/15 06:13:26;;;;;;;35.80;19.40;;;8.50;94.30;;;;;;5020691;28;20045;-81
2021/05/15 06:15:52;;;;;;;34.92;19.70;;;8.60;94.40;;;;;;5013657;28;20063;-81
2021/05/15 06:18:19;;;;;;;31.65;17.27;;;8.60;94.40;;;;;;4996109;28;20105;-82
2021/05/15 06:20:45;;;;;;;32.28;18.60;;;8.70;94.40;;;;;;5030971;28;20091;-80
2021/05/15 06:23:11;;;;;;;33.83;18.83;;;8.70;94.30;;;;;;5008741;28;20043;-81
2021/05/15 06:25:37;;;;;;;40.15;18.70;;;8.80;94.30;;;;;;5004756;28;20483;-80
2021/05/15 06:28:03;;;;;;;36.33;19.23;;;8.80;94.30;;;;;;5030304;28;20112;-81
2021/05/15 06:30:29;;;;;;;32.95;18.13;;;8.80;94.30;;;;;;4994772;28;20034;-80
2021/05/15 06:32:55;;;;;;;35.72;18.75;;;8.90;94.50;;;;;;5013128;28;20036;-81
2021/05/15 06:35:21;;;;;;;32.05;18.83;;;8.90;94.20;;;;;;5028536;28;20071;-81
2021/05/15 06:37:46;;;;;;;29.85;17.20;;;9.00;94.10;;;;;;5008709;28;20152;-80
2021/05/15 06:40:13;;;;;;;31.88;18.40;;;9.00;94.10;;;;;;5001837;28;20657;-81
2021/05/15 06:42:38;;;;;;;39.03;19.27;;;9.10;94.00;;;;;;5032347;28;20038;-81
2021/05/15 06:45:08;;;;;;;36.17;18.92;;;9.10;94.00;;;;;;4998060;28;20052;-80
2021/05/15 06:47:34;;;;;;;28.85;18.30;;;9.10;94.00;;;;;;4997986;28;20611;-81
2021/05/15 06:50:00;;;;;;;35.75;19.88;;;9.20;94.00;;;;;;5032213;28;20079;-81
2021/05/15 06:52:26;;;;;;;37.88;18.67;;;9.30;93.90;;;;;;5012599;28;20605;-80
2021/05/15 06:54:52;;;;;;;30.55;17.63;;;9.30;93.90;;;;;;5012914;28;20058;-81
2021/05/15 06:57:19;;;;;;;33.15;19.42;;;9.40;93.80;;;;;;5029847;28;20117;-81
2021/05/15 06:59:46;;;;;;;32.78;17.83;;;9.40;94.10;;;;;;5028580;28;20060;-80
2021/05/15 07:02:12;;;;;;;35.70;18.33;;;9.40;93.70;;;;;;5013757;28;20037;-80
2021/05/15 07:04:38;;;;;;;38.20;20.63;;;9.40;93.70;;;;;;5012491;28;20120;-80
2021/05/15 07:07:03;;;;;;;35.80;19.92;;;9.50;93.70;;;;;;5011640;28;20143;-81
2021/05/15 07:09:29;;;;;;;33.28;18.25;;;9.50;93.50;;;;;;4996982;28;20033;-80
2021/05/15 07:11:55;;;;;;;35.45;19.45;;;9.60;93.60;;;;;;4996652;28;20097;-80
2021/05/15 07:14:21;;;;;;;33.17;19.20;;;9.60;93.50;;;;;;5015256;28;20645;-80
2021/05/15 07:16:47;;;;;;;34.47;19.40;;;9.70;93.40;;;;;;4997903;28;20076;-81
2021/05/15 07:19:14;;;;;;;35.45;19.45;;;9.70;93.80;;;;;;4994463;28;20040;-80
2021/05/15 07:21:40;;;;;;;37.20;20.45;;;9.70;93.40;;;;;;5008326;28;20034;-81
2021/05/15 07:24:06;;;;;;;36.45;19.83;;;9.80;93.30;;;;;;4996209;28;20120;-81
2021/05/15 07:26:32;;;;;;;40.22;20.02;;;9.90;93.30;;;;;;5012389;28;20446;-81
2021/05/15 07:28:58;;;;;;;33.10;19.02;;;10.00;93.30;;;;;;5012237;28;20030;-81
2021/05/15 07:31:23;;;;;;;38.70;20.52;;;10.10;93.20;;;;;;4995542;28;20466;-80
2021/05/15 07:33:49;;;;;;;37.53;20.83;;;10.10;93.00;;;;;;4994773;28;20089;-80
2021/05/15 07:36:17;;;;;;;36.53;19.98;;;10.20;92.90;;;;;;4996978;28;20030;-81
2021/05/15 07:38:43;;;;;;;39.20;20.65;;;10.30;92.90;;;;;;5026167;28;20572;-81
2021/05/15 07:41:09;;;;;;;36.90;20.55;;;10.30;92.80;;;;;;5004288;28;20041;-81
2021/05/15 07:43:35;;;;;;;40.70;20.30;;;10.40;92.70;;;;;;5009545;28;20044;-80
2021/05/15 07:46:02;;;;;;;42.40;20.33;;;10.40;92.80;;;;;;5010693;28;20037;-81
2021/05/15 07:48:29;;;;;;;42.05;21.08;;;10.40;92.60;;;;;;5014811;28;20483;-81
2021/05/15 07:51:01;;;;;;;43.60;20.63;;;10.50;92.40;;;;;;5023570;28;20030;-81
2021/05/15 07:53:27;;;;;;;49.85;22.33;;;10.50;92.40;;;;;;5008194;28;20558;-80
2021/05/15 07:55:53;;;;;;;40.83;20.92;;;10.60;92.60;;;;;;5015171;28;20033;-80
2021/05/15 07:58:19;;;;;;;49.88;22.58;;;10.60;92.60;;;;;;5024754;28;20496;-81
2021/05/15 08:00:45;;;;;;;42.60;21.98;;;10.70;92.50;;;;;;4993979;28;20029;-82
2021/05/15 08:03:12;;;;;;;44.25;21.45;;;10.70;92.50;;;;;;5011726;28;20034;-82
2021/05/15 08:05:38;;;;;;;43.28;21.73;;;10.80;92.20;;;;;;5023907;28;20033;-82
2021/05/15 08:08:05;;;;;;;49.50;22.80;;;10.80;92.20;;;;;;5030173;28;20045;-82
2021/05/15 08:10:31;;;;;;;48.92;22.02;;;10.80;92.20;;;;;;4994726;28;20104;-82
2021/05/15 08:12:58;;;;;;;49.53;22.58;;;10.80;92.10;;;;;;5023569;28;20044;-84
2021/05/15 08:15:24;;;;;;;46.70;23.20;;;10.90;92.20;;;;;;5028121;28;20037;-82
2021/05/15 08:17:51;;;;;;;51.60;23.33;;;10.90;92.10;;;;;;4997590;28;20046;-82
2021/05/15 08:20:18;;;;;;;41.15;21.88;;;10.90;92.40;;;;;;5018266;28;20029;-83
2021/05/15 08:22:44;;;;;;;51.55;23.73;;;10.90;91.90;;;;;;5003776;28;20699;-83
2021/05/15 08:25:14;;;;;;;52.63;25.00;;;10.90;91.90;;;;;;5026843;28;20049;-83
2021/05/15 08:27:41;;;;;;;46.90;24.88;;;10.90;91.60;;;;;;5016293;28;20041;-82
2021/05/15 08:30:09;;;;;;;44.90;22.75;;;10.90;91.40;;;;;;5011713;28;20060;-83
2021/05/15 08:32:35;;;;;;;47.92;24.10;;;10.80;91.40;;;;;;5039502;28;20033;-82
2021/05/15 08:35:01;;;;;;;50.20;24.95;;;10.80;91.50;;;;;;5015271;28;20124;-82
2021/05/15 08:37:27;;;;;;;53.25;24.42;;;10.80;91.50;;;;;;5012696;28;20453;-82
2021/05/15 08:39:54;;;;;;;46.90;24.33;;;10.80;91.50;;;;;;5013441;28;20048;-83
2021/05/15 08:42:21;;;;;;;54.60;27.15;;;10.80;91.50;;;;;;5013438;28;20030;-82
2021/05/15 08:44:49;;;;;;;47.63;25.15;;;10.80;91.90;;;;;;5014612;28;20029;-82
2021/05/15 08:47:16;;;;;;;49.13;24.83;;;10.80;91.50;;;;;;5015491;28;20270;-82
2021/05/15 08:49:44;;;;;;;49.65;26.52;;;10.80;91.60;;;;;;4981454;28;20042;-82
2021/05/15 08:52:11;;;;;;;49.80;25.58;;;10.80;91.60;;;;;;4999570;28;20038;-83
2021/05/15 08:54:37;;;;;;;51.60;27.73;;;10.90;91.60;;;;;;5007659;28;20179;-82
2021/05/15 08:57:03;;;;;;;53.70;27.58;;;10.90;91.60;;;;;;4999049;28;20044;-83
2021/05/15 08:59:29;;;;;;;46.10;26.30;;;10.90;91.60;;;;;;5025069;28;20509;-83
2021/05/15 09:01:56;;;;;;;50.05;26.38;;;10.90;91.70;;;;;;5003709;28;20041;-83
2021/05/15 09:04:23;;;;;;;53.25;26.05;;;10.90;91.70;;;;;;5005417;28;20120;-84
2021/05/15 09:06:49;;;;;;;56.63;28.60;;;10.90;91.80;;;;;;5007498;28;20037;-82
2021/05/15 09:09:15;;;;;;;55.05;28.92;;;11.00;91.80;;;;;;5004708;28;20095;-85
2021/05/15 09:11:41;;;;;;;52.40;28.40;;;11.10;91.90;;;;;;5006408;28;20033;-84
2021/05/15 09:14:18;;;;;;;56.67;29.20;;;11.10;91.80;;;;;;4989531;28;20480;-82
2021/05/15 09:16:52;;;;;;;55.42;29.05;;;11.20;91.70;;;;;;5015656;28;20099;-82
2021/05/15 09:19:24;;;;;;;53.63;29.38;;;11.30;91.70;;;;;;5019557;28;20069;-86
2021/05/15 09:21:59;;;;;;;56.35;29.65;;;11.40;91.50;;;;;;5018080;28;20038;-86
2021/05/15 09:24:37;;;;;;;54.35;28.70;;;11.50;91.60;;;;;;5002580;28;20348;-81
2021/05/15 09:27:07;;;;;;;58.72;30.92;;;11.70;91.60;;;;;;5017925;28;20551;-82
2021/05/15 09:29:47;;;;;;;59.22;32.58;;;11.80;91.40;;;;;;5001789;28;20200;-82
2021/05/15 09:32:30;;;;;;;60.67;31.92;;;12.00;91.20;;;;;;5004770;28;20318;-81
2021/05/15 09:34:56;;;;;;;57.50;32.63;;;12.00;90.90;;;;;;5017245;28;20549;-85
2021/05/15 09:37:28;;;;;;;61.58;34.15;;;12.10;90.80;;;;;;4971747;28;20122;-81
2021/05/15 09:39:54;;;;;;;54.37;32.33;;;12.10;90.80;;;;;;5019429;28;20091;-83
2021/05/15 09:42:20;;;;;;;65.60;34.67;;;12.10;90.80;;;;;;5004981;28;20513;-81
2021/05/15 09:44:46;;;;;;;61.35;32.97;;;12.00;90.80;;;;;;4983040;28;20041;-85
2021/05/15 09:47:40;;;;;;;60.90;33.30;;;12.10;90.90;;;;;;4954198;28;20049;-85
2021/05/15 09:50:15;;;;;;;57.40;32.40;;;12.10;90.80;;;;;;5007446;28;20187;-85
2021/05/15 09:52:41;;;;;;;57.15;33.83;;;12.10;90.70;;;;;;4973740;28;20052;-85
2021/05/15 09:55:19;;;;;;;58.00;32.72;;;12.20;90.80;;;;;;4972819;28;20033;-85
2021/05/15 09:57:54;;;;;;;57.20;31.67;;;12.20;90.80;;;;;;4992449;28;20056;-86
2021/05/15 10:00:20;;;;;;;57.65;33.58;;;12.30;90.50;;;;;;5020401;28;20407;-86
2021/05/15 10:02:56;;;;;;;59.65;33.63;;;12.30;90.50;;;;;;4998278;28;20049;-86
2021/05/15 10:05:34;;;;;;;54.58;34.08;;;12.30;90.30;;;;;;4988396;28;20120;-85
2021/05/15 10:08:07;;;;;;;56.47;34.75;;;12.30;90.30;;;;;;4991862;28;20045;-88
2021/05/15 10:10:33;;;;;;;61.65;36.40;;;12.30;90.40;;;;;;4993386;28;20041;-86
2021/05/15 10:13:01;;;;;;;59.97;35.92;;;12.20;90.40;;;;;;5019599;28;20029;-84
2021/05/15 10:15:27;;;;;;;62.95;36.83;;;12.20;90.30;;;;;;4998567;28;20152;-85
2021/05/15 10:17:53;;;;;;;62.72;36.33;;;12.20;90.50;;;;;;4992941;28;20044;-86
2021/05/15 10:20:19;;;;;;;60.40;35.58;;;12.20;90.60;;;;;;4953895;28;20045;-84
2021/05/15 10:22:45;;;;;;;61.80;37.10;;;12.20;90.60;;;;;;4999110;28;20483;-85
2021/05/15 10:25:13;;;;;;;61.15;35.90;;;12.20;90.60;;;;;;5009943;28;20033;-84
2021/05/15 10:27:40;;;;;;;64.28;37.75;;;12.20;90.80;;;;;;5012272;28;20479;-84
2021/05/15 10:30:18;;;;;;;61.63;35.53;;;12.20;90.80;;;;;;4992815;28;20125;-85
2021/05/15 10:33:09;;;;;;;60.42;36.92;;;12.20;90.80;;;;;;5003313;28;20033;-86
2021/05/15 10:36:04;;;;;;;61.83;36.88;;;12.10;90.70;;;;;;5006729;28;20065;-87
2021/05/15 10:38:39;;;;;;;67.63;38.00;;;12.10;90.60;;;;;;4993550;28;20058;-85
2021/05/15 10:41:15;;;;;;;61.80;39.75;;;12.00;90.70;;;;;;4997877;28;20042;-85
2021/05/15 10:43:42;;;;;;;63.00;38.72;;;12.00;90.80;;;;;;4995697;28;20084;-85
2021/05/15 10:46:18;;;;;;;69.00;40.42;;;12.00;90.80;;;;;;4973359;28;20042;-85
2021/05/15 10:49:04;;;;;;;67.28;39.10;;;12.00;91.00;;;;;;4968557;28;20054;-85
2021/05/15 10:51:50;;;;;;;66.30;39.05;;;12.00;91.00;;;;;;4992131;28;20058;-85
2021/05/15 10:54:32;;;;;;;66.38;39.45;;;12.20;91.10;;;;;;4987917;28;20053;-86
2021/05/15 10:57:04;;;;;;;60.75;38.47;;;12.40;91.20;;;;;;4987074;28;20070;-84
2021/05/15 10:59:30;;;;;;;62.53;37.87;;;12.60;90.90;;;;;;4992762;28;20614;-86
2021/05/15 11:02:01;;;;;;;62.88;38.33;;;12.80;90.60;;;;;;4978791;28;20057;-85
2021/05/15 11:04:27;;;;;;;63.72;40.45;;;13.00;90.30;;;;;;4978348;28;20056;-85
2021/05/15 11:07:06;;;;;;;59.60;38.55;;;13.10;90.10;;;;;;4973153;28;20548;-84
2021/05/15 11:09:34;;;;;;;55.30;36.92;;;13.20;90.10;;;;;;4990743;28;20053;-85
2021/05/15 11:12:13;;;;;;;57.50;37.20;;;13.40;89.80;;;;;;5005509;28;20037;-85
2021/05/15 11:14:44;;;;;;;53.92;36.35;;;13.50;89.80;;;;;;5009423;28;20049;-84
2021/05/15 11:17:25;;;;;;;56.83;34.47;;;13.60;88.80;;;;;;4998548;28;20034;-85
2021/05/15 11:19:58;;;;;;;59.38;35.78;;;13.70;88.20;;;;;;5001796;28;20144;-85
2021/05/15 11:22:40;;;;;;;55.47;34.50;;;13.80;87.90;;;;;;4997948;28;20042;-84
2021/05/15 11:25:27;;;;;;;56.57;35.33;;;13.70;87.30;;;;;;4998786;28;20030;-84
2021/05/15 11:27:57;;;;;;;50.22;34.13;;;13.70;87.30;;;;;;5017588;28;20342;-85
2021/05/15 11:30:24;;;;;;;53.97;34.88;;;13.60;87.50;;;;;;5006061;28;20052;-84
2021/05/15 11:33:05;;;;;;;54.13;34.00;;;13.70;87.70;;;;;;5032252;28;20079;-85
2021/05/15 11:35:48;;;;;;;49.03;33.20;;;13.70;87.20;;;;;;5009358;28;20155;-88
2021/05/15 11:38:20;;;;;;;55.28;33.97;;;13.70;86.80;;;;;;4983471;28;20601;-86
2021/05/15 11:40:46;;;;;;;52.92;33.13;;;13.60;87.30;;;;;;5011111;28;20043;-84
2021/05/15 11:43:22;;;;;;;55.72;35.30;;;13.60;88.20;;;;;;5031829;28;20029;-83
2021/05/15 11:45:50;;;;;;;53.30;34.70;;;13.60;88.30;;;;;;5027121;28;20049;-83
2021/05/15 11:48:21;;;;;;;55.95;36.63;;;13.70;88.90;;;;;;5021541;28;20037;-83
2021/05/15 11:51:03;;;;;;;45.58;31.75;;;13.80;90.00;;;;;;4997612;28;20030;-84
2021/05/15 11:53:39;;;;;;;56.40;35.88;;;14.20;89.90;;;;;;4996168;28;20045;-82
2021/05/15 11:56:17;;;;;;;53.13;35.38;;;14.40;89.40;;;;;;5000319;28;20136;-83
2021/05/15 11:58:43;;;;;;;49.22;31.92;;;14.70;89.50;;;;;;5025794;28;20037;-83
2021/05/15 12:01:31;;;;;;;47.40;33.03;;;14.80;88.20;;;;;;5012618;28;20040;-83
2021/05/15 12:04:18;;;;;;;46.72;32.45;;;15.00;87.20;;;;;;5012580;28;20037;-83
2021/05/15 12:06:45;;;;;;;44.97;30.58;;;15.20;86.70;;;;;;4997644;28;20052;-83
2021/05/15 12:09:15;;;;;;;44.15;30.75;;;15.40;86.70;;;;;;5013448;28;20095;-84
2021/05/15 12:11:42;;;;;;;46.78;31.73;;;15.60;85.00;;;;;;4995236;28;20148;-84
2021/05/15 12:14:08;;;;;;;45.38;29.98;;;15.50;84.40;;;;;;4993875;28;20091;-84
2021/05/15 12:16:38;;;;;;;40.30;29.98;;;15.40;83.90;;;;;;5007128;28;20041;-84
2021/05/15 12:19:05;;;;;;;42.78;29.35;;;15.40;84.70;;;;;;5026560;28;20052;-84
2021/05/15 12:21:32;;;;;;;39.42;29.00;;;15.30;84.00;;;;;;4997269;28;20048;-84
2021/05/15 12:24:08;;;;;;;41.70;28.17;;;15.30;83.80;;;;;;4992133;28;20377;-84
2021/05/15 12:26:37;;;;;;;39.30;28.75;;;15.30;83.30;;;;;;4993242;28;20044;-84
2021/05/15 12:29:04;;;;;;;43.28;28.83;;;15.30;82.50;;;;;;4991769;28;20037;-83
2021/05/15 12:31:35;;;;;;;38.90;28.50;;;15.30;82.50;;;;;;5007028;28;20033;-84
2021/05/15 12:34:06;;;;;;;41.17;28.88;;;15.40;82.20;;;;;;4989563;28;20497;-84
2021/05/15 12:36:34;;;;;;;39.60;27.67;;;15.40;82.00;;;;;;4993640;28;20493;-85
2021/05/15 12:39:04;;;;;;;38.35;27.63;;;15.40;81.80;;;;;;5026416;28;20039;-84